sensor_id;sensor_type;location;lat;lon;timestamp;P1;durP1;ratioP1;P2;durP2;ratioP2
47069;SDS011;32822;48.140;7.702;2024-03-25T00:01:24;3.50;;;1.60;;
47069;SDS011;32822;48.140;7.702;2024-03-25T00:03:53;4.20;;;1.80;;
47069;SDS011;32822;48.140;7.702;2024-03-25T00:06:18;2.83;;;1.80;;
47069;SDS011;32822;48.140;7.702;2024-03-25T00:08:45;3.37;;;1.83;;
47069;SDS011;32822;48.140;7.702;2024-03-25T00:11:12;5.23;;;1.90;;
47069;SDS011;32822;48.140;7.702;2024-03-25T00:13:39;3.40;;;2.23;;
47069;SDS011;32822;48.140;7.702;2024-03-25T00:16:05;2.53;;;2.30;;
47069;SDS011;32822;48.140;7.702;2024-03-25T00:18:32;3.63;;;1.87;;
47069;SDS011;32822;48.140;7.702;2024-03-25T00:20:59;2.47;;;2.20;;
47069;SDS011;32822;48.140;7.702;2024-03-25T00:23:26;2.93;;;1.80;;
47069;SDS011;32822;48.140;7.702;2024-03-25T00:25:52;3.53;;;1.87;;
47069;SDS011;32822;48.140;7.702;2024-03-25T00:28:18;3.63;;;1.93;;
47069;SDS011;32822;48.140;7.702;2024-03-25T00:30:44;3.30;;;2.23;;
47069;SDS011;32822;48.140;7.702;2024-03-25T00:33:11;3.17;;;2.00;;
47069;SDS011;32822;48.140;7.702;2024-03-25T00:35:37;2.40;;;2.13;;
47069;SDS011;32822;48.140;7.702;2024-03-25T00:38:05;4.57;;;2.40;;
47069;SDS011;32822;48.140;7.702;2024-03-25T00:40:32;2.90;;;1.90;;
47069;SDS011;32822;48.140;7.702;2024-03-25T00:42:59;3.30;;;2.73;;
47069;SDS011;32822;48.140;7.702;2024-03-25T00:45:25;3.20;;;1.90;;
47069;SDS011;32822;48.140;7.702;2024-03-25T00:47:55;5.20;;;2.40;;
47069;SDS011;32822;48.140;7.702;2024-03-25T00:50:21;3.43;;;2.27;;
47069;SDS011;32822;48.140;7.702;2024-03-25T00:52:48;2.57;;;2.33;;
47069;SDS011;32822;48.140;7.702;2024-03-25T00:55:15;4.30;;;2.13;;
47069;SDS011;32822;48.140;7.702;2024-03-25T00:57:41;3.90;;;2.20;;
47069;SDS011;32822;48.140;7.702;2024-03-25T01:00:09;5.40;;;2.33;;
47069;SDS011;32822;48.140;7.702;2024-03-25T01:02:36;6.87;;;2.30;;
47069;SDS011;32822;48.140;7.702;2024-03-25T01:05:02;4.30;;;2.23;;
47069;SDS011;32822;48.140;7.702;2024-03-25T01:07:30;3.87;;;2.07;;
47069;SDS011;32822;48.140;7.702;2024-03-25T01:09:56;3.47;;;2.37;;
47069;SDS011;32822;48.140;7.702;2024-03-25T01:12:24;2.30;;;1.93;;
47069;SDS011;32822;48.140;7.702;2024-03-25T01:14:50;5.03;;;2.10;;
47069;SDS011;32822;48.140;7.702;2024-03-25T01:17:17;3.33;;;2.63;;
47069;SDS011;32822;48.140;7.702;2024-03-25T01:19:43;3.17;;;2.53;;
47069;SDS011;32822;48.140;7.702;2024-03-25T01:22:10;4.13;;;2.30;;
47069;SDS011;32822;48.140;7.702;2024-03-25T01:24:35;6.77;;;3.50;;
47069;SDS011;32822;48.140;7.702;2024-03-25T01:27:02;3.30;;;2.80;;
47069;SDS011;32822;48.140;7.702;2024-03-25T01:29:30;4.20;;;2.30;;
47069;SDS011;32822;48.140;7.702;2024-03-25T01:31:57;3.03;;;2.10;;
47069;SDS011;32822;48.140;7.702;2024-03-25T01:34:24;2.93;;;2.10;;
47069;SDS011;32822;48.140;7.702;2024-03-25T01:36:51;3.60;;;2.30;;
47069;SDS011;32822;48.140;7.702;2024-03-25T01:39:17;4.30;;;2.17;;
47069;SDS011;32822;48.140;7.702;2024-03-25T01:41:44;3.67;;;1.93;;
47069;SDS011;32822;48.140;7.702;2024-03-25T01:44:10;4.03;;;2.50;;
47069;SDS011;32822;48.140;7.702;2024-03-25T01:46:38;5.00;;;2.50;;
47069;SDS011;32822;48.140;7.702;2024-03-25T01:49:05;4.50;;;3.57;;
47069;SDS011;32822;48.140;7.702;2024-03-25T01:51:32;2.67;;;2.47;;
47069;SDS011;32822;48.140;7.702;2024-03-25T01:54:00;2.50;;;2.30;;
47069;SDS011;32822;48.140;7.702;2024-03-25T01:56:27;3.70;;;2.77;;
47069;SDS011;32822;48.140;7.702;2024-03-25T01:58:57;2.93;;;2.33;;
47069;SDS011;32822;48.140;7.702;2024-03-25T02:01:24;3.83;;;3.47;;
47069;SDS011;32822;48.140;7.702;2024-03-25T02:03:52;5.57;;;3.90;;
47069;SDS011;32822;48.140;7.702;2024-03-25T02:06:20;4.47;;;3.30;;
47069;SDS011;32822;48.140;7.702;2024-03-25T02:08:49;6.13;;;3.80;;
47069;SDS011;32822;48.140;7.702;2024-03-25T02:11:16;5.57;;;4.23;;
47069;SDS011;32822;48.140;7.702;2024-03-25T02:13:43;4.87;;;2.77;;
47069;SDS011;32822;48.140;7.702;2024-03-25T02:16:10;2.83;;;2.47;;
47069;SDS011;32822;48.140;7.702;2024-03-25T02:18:36;3.43;;;2.53;;
47069;SDS011;32822;48.140;7.702;2024-03-25T02:21:04;4.03;;;3.37;;
47069;SDS011;32822;48.140;7.702;2024-03-25T02:23:30;4.03;;;2.70;;
47069;SDS011;32822;48.140;7.702;2024-03-25T02:26:00;7.60;;;2.80;;
47069;SDS011;32822;48.140;7.702;2024-03-25T02:28:26;7.00;;;3.30;;
47069;SDS011;32822;48.140;7.702;2024-03-25T02:30:53;5.57;;;2.63;;
47069;SDS011;32822;48.140;7.702;2024-03-25T02:33:18;5.53;;;2.77;;
47069;SDS011;32822;48.140;7.702;2024-03-25T02:35:45;7.97;;;3.13;;
47069;SDS011;32822;48.140;7.702;2024-03-25T02:38:11;3.67;;;2.80;;
47069;SDS011;32822;48.140;7.702;2024-03-25T02:40:40;3.90;;;2.50;;
47069;SDS011;32822;48.140;7.702;2024-03-25T02:43:07;4.30;;;2.60;;
47069;SDS011;32822;48.140;7.702;2024-03-25T02:45:36;4.37;;;2.33;;
47069;SDS011;32822;48.140;7.702;2024-03-25T02:48:02;5.70;;;3.17;;
47069;SDS011;32822;48.140;7.702;2024-03-25T02:50:29;3.13;;;2.70;;
47069;SDS011;32822;48.140;7.702;2024-03-25T02:52:55;5.23;;;3.10;;
47069;SDS011;32822;48.140;7.702;2024-03-25T02:55:22;4.57;;;3.17;;
47069;SDS011;32822;48.140;7.702;2024-03-25T02:57:47;4.90;;;2.83;;
47069;SDS011;32822;48.140;7.702;2024-03-25T03:00:16;4.43;;;2.73;;
47069;SDS011;32822;48.140;7.702;2024-03-25T03:02:42;4.07;;;2.80;;
47069;SDS011;32822;48.140;7.702;2024-03-25T03:05:09;4.10;;;3.70;;
47069;SDS011;32822;48.140;7.702;2024-03-25T03:07:35;5.07;;;2.80;;
47069;SDS011;32822;48.140;7.702;2024-03-25T03:10:01;3.13;;;2.83;;
47069;SDS011;32822;48.140;7.702;2024-03-25T03:12:27;5.07;;;2.70;;
47069;SDS011;32822;48.140;7.702;2024-03-25T03:14:54;3.67;;;2.40;;
47069;SDS011;32822;48.140;7.702;2024-03-25T03:17:21;2.93;;;2.43;;
47069;SDS011;32822;48.140;7.702;2024-03-25T03:19:48;3.50;;;2.80;;
47069;SDS011;32822;48.140;7.702;2024-03-25T03:22:13;3.43;;;2.43;;
47069;SDS011;32822;48.140;7.702;2024-03-25T03:24:40;3.33;;;2.60;;
47069;SDS011;32822;48.140;7.702;2024-03-25T03:27:06;3.60;;;3.00;;
47069;SDS011;32822;48.140;7.702;2024-03-25T03:29:32;3.27;;;2.47;;
47069;SDS011;32822;48.140;7.702;2024-03-25T03:31:58;4.10;;;2.33;;
47069;SDS011;32822;48.140;7.702;2024-03-25T03:34:26;3.17;;;2.10;;
47069;SDS011;32822;48.140;7.702;2024-03-25T03:36:52;3.67;;;2.60;;
47069;SDS011;32822;48.140;7.702;2024-03-25T03:39:19;4.73;;;2.57;;
47069;SDS011;32822;48.140;7.702;2024-03-25T03:41:44;3.57;;;2.53;;
47069;SDS011;32822;48.140;7.702;2024-03-25T03:44:11;4.63;;;2.23;;
47069;SDS011;32822;48.140;7.702;2024-03-25T03:46:38;4.20;;;2.53;;
47069;SDS011;32822;48.140;7.702;2024-03-25T03:49:04;5.90;;;2.90;;
47069;SDS011;32822;48.140;7.702;2024-03-25T03:51:31;3.43;;;2.30;;
47069;SDS011;32822;48.140;7.702;2024-03-25T03:53:58;4.20;;;2.17;;
47069;SDS011;32822;48.140;7.702;2024-03-25T03:56:24;3.67;;;2.03;;
47069;SDS011;32822;48.140;7.702;2024-03-25T03:58:50;4.20;;;3.53;;
47069;SDS011;32822;48.140;7.702;2024-03-25T04:01:16;4.13;;;2.70;;
47069;SDS011;32822;48.140;7.702;2024-03-25T04:03:43;2.60;;;2.33;;
47069;SDS011;32822;48.140;7.702;2024-03-25T04:06:10;4.17;;;2.23;;
47069;SDS011;32822;48.140;7.702;2024-03-25T04:08:39;3.83;;;2.80;;
47069;SDS011;32822;48.140;7.702;2024-03-25T04:11:05;3.43;;;2.83;;
47069;SDS011;32822;48.140;7.702;2024-03-25T04:13:32;4.13;;;2.70;;
47069;SDS011;32822;48.140;7.702;2024-03-25T04:16:00;2.93;;;2.73;;
47069;SDS011;32822;48.140;7.702;2024-03-25T04:18:29;4.13;;;3.13;;
47069;SDS011;32822;48.140;7.702;2024-03-25T04:20:55;4.50;;;2.67;;
47069;SDS011;32822;48.140;7.702;2024-03-25T04:23:22;4.97;;;2.50;;
47069;SDS011;32822;48.140;7.702;2024-03-25T04:25:49;3.90;;;2.47;;
47069;SDS011;32822;48.140;7.702;2024-03-25T04:28:17;4.97;;;2.83;;
47069;SDS011;32822;48.140;7.702;2024-03-25T04:30:42;3.00;;;2.50;;
47069;SDS011;32822;48.140;7.702;2024-03-25T04:33:09;3.73;;;2.60;;
47069;SDS011;32822;48.140;7.702;2024-03-25T04:35:35;5.20;;;2.70;;
47069;SDS011;32822;48.140;7.702;2024-03-25T04:38:02;3.53;;;2.60;;
47069;SDS011;32822;48.140;7.702;2024-03-25T04:40:28;3.83;;;2.70;;
47069;SDS011;32822;48.140;7.702;2024-03-25T04:42:55;3.13;;;2.57;;
47069;SDS011;32822;48.140;7.702;2024-03-25T04:45:21;4.20;;;2.90;;
47069;SDS011;32822;48.140;7.702;2024-03-25T04:47:47;7.23;;;3.77;;
47069;SDS011;32822;48.140;7.702;2024-03-25T04:50:13;5.03;;;2.10;;
47069;SDS011;32822;48.140;7.702;2024-03-25T04:52:39;3.23;;;2.40;;
47069;SDS011;32822;48.140;7.702;2024-03-25T04:55:05;3.37;;;2.73;;
47069;SDS011;32822;48.140;7.702;2024-03-25T04:57:31;4.33;;;3.27;;
47069;SDS011;32822;48.140;7.702;2024-03-25T04:59:58;5.17;;;3.10;;
47069;SDS011;32822;48.140;7.702;2024-03-25T05:02:24;4.67;;;3.10;;
47069;SDS011;32822;48.140;7.702;2024-03-25T05:04:49;4.50;;;2.53;;
47069;SDS011;32822;48.140;7.702;2024-03-25T05:07:15;6.83;;;3.50;;
47069;SDS011;32822;48.140;7.702;2024-03-25T05:09:41;2.93;;;2.30;;
47069;SDS011;32822;48.140;7.702;2024-03-25T05:12:07;4.40;;;2.63;;
47069;SDS011;32822;48.140;7.702;2024-03-25T05:14:33;5.10;;;3.37;;
47069;SDS011;32822;48.140;7.702;2024-03-25T05:17:00;3.47;;;3.00;;
47069;SDS011;32822;48.140;7.702;2024-03-25T05:19:26;5.87;;;2.63;;
47069;SDS011;32822;48.140;7.702;2024-03-25T05:21:52;2.80;;;2.30;;
47069;SDS011;32822;48.140;7.702;2024-03-25T05:24:17;6.30;;;2.87;;
47069;SDS011;32822;48.140;7.702;2024-03-25T05:26:43;3.87;;;2.70;;
47069;SDS011;32822;48.140;7.702;2024-03-25T05:29:09;4.00;;;2.73;;
47069;SDS011;32822;48.140;7.702;2024-03-25T05:31:35;4.63;;;2.93;;
47069;SDS011;32822;48.140;7.702;2024-03-25T05:34:03;4.50;;;2.53;;
47069;SDS011;32822;48.140;7.702;2024-03-25T05:36:28;4.97;;;3.00;;
47069;SDS011;32822;48.140;7.702;2024-03-25T05:38:54;5.73;;;3.80;;
47069;SDS011;32822;48.140;7.702;2024-03-25T05:41:20;5.03;;;3.50;;
47069;SDS011;32822;48.140;7.702;2024-03-25T05:43:46;5.47;;;4.13;;
47069;SDS011;32822;48.140;7.702;2024-03-25T05:46:12;4.73;;;3.47;;
47069;SDS011;32822;48.140;7.702;2024-03-25T05:48:37;4.93;;;3.40;;
47069;SDS011;32822;48.140;7.702;2024-03-25T05:51:05;6.87;;;4.40;;
47069;SDS011;32822;48.140;7.702;2024-03-25T05:53:31;3.63;;;3.30;;
47069;SDS011;32822;48.140;7.702;2024-03-25T05:55:57;3.00;;;2.50;;
47069;SDS011;32822;48.140;7.702;2024-03-25T05:58:23;3.30;;;2.70;;
47069;SDS011;32822;48.140;7.702;2024-03-25T06:00:49;9.33;;;3.67;;
47069;SDS011;32822;48.140;7.702;2024-03-25T06:03:15;6.80;;;3.00;;
47069;SDS011;32822;48.140;7.702;2024-03-25T06:05:41;4.20;;;3.03;;
47069;SDS011;32822;48.140;7.702;2024-03-25T06:08:08;5.90;;;2.83;;
47069;SDS011;32822;48.140;7.702;2024-03-25T06:10:35;5.07;;;2.67;;
47069;SDS011;32822;48.140;7.702;2024-03-25T06:13:02;3.17;;;2.67;;
47069;SDS011;32822;48.140;7.702;2024-03-25T06:15:27;4.80;;;2.73;;
47069;SDS011;32822;48.140;7.702;2024-03-25T06:17:53;7.93;;;3.53;;
47069;SDS011;32822;48.140;7.702;2024-03-25T06:20:19;5.53;;;2.90;;
47069;SDS011;32822;48.140;7.702;2024-03-25T06:22:45;5.57;;;3.37;;
47069;SDS011;32822;48.140;7.702;2024-03-25T06:25:12;3.63;;;3.13;;
47069;SDS011;32822;48.140;7.702;2024-03-25T06:27:38;6.33;;;2.80;;
47069;SDS011;32822;48.140;7.702;2024-03-25T06:30:04;3.23;;;2.60;;
47069;SDS011;32822;48.140;7.702;2024-03-25T06:32:46;3.70;;;2.80;;
47069;SDS011;32822;48.140;7.702;2024-03-25T06:35:30;5.23;;;3.23;;
47069;SDS011;32822;48.140;7.702;2024-03-25T06:37:55;5.77;;;3.10;;
47069;SDS011;32822;48.140;7.702;2024-03-25T06:40:23;3.73;;;2.43;;
47069;SDS011;32822;48.140;7.702;2024-03-25T06:42:48;4.30;;;3.17;;
47069;SDS011;32822;48.140;7.702;2024-03-25T06:45:14;5.03;;;2.93;;
47069;SDS011;32822;48.140;7.702;2024-03-25T06:47:40;5.70;;;3.87;;
47069;SDS011;32822;48.140;7.702;2024-03-25T06:50:06;4.07;;;3.50;;
47069;SDS011;32822;48.140;7.702;2024-03-25T06:52:32;7.83;;;3.50;;
47069;SDS011;32822;48.140;7.702;2024-03-25T06:54:58;4.13;;;3.10;;
47069;SDS011;32822;48.140;7.702;2024-03-25T06:57:25;10.97;;;3.77;;
47069;SDS011;32822;48.140;7.702;2024-03-25T06:59:51;3.43;;;2.97;;
47069;SDS011;32822;48.140;7.702;2024-03-25T07:02:17;2.93;;;2.73;;
47069;SDS011;32822;48.140;7.702;2024-03-25T07:04:42;3.60;;;2.73;;
47069;SDS011;32822;48.140;7.702;2024-03-25T07:07:08;4.03;;;3.20;;
47069;SDS011;32822;48.140;7.702;2024-03-25T07:09:34;5.87;;;2.80;;
47069;SDS011;32822;48.140;7.702;2024-03-25T07:12:00;3.07;;;2.57;;
47069;SDS011;32822;48.140;7.702;2024-03-25T07:14:27;3.07;;;2.30;;
47069;SDS011;32822;48.140;7.702;2024-03-25T07:16:53;2.83;;;2.20;;
47069;SDS011;32822;48.140;7.702;2024-03-25T07:19:18;4.07;;;2.87;;
47069;SDS011;32822;48.140;7.702;2024-03-25T07:21:44;5.40;;;2.63;;
47069;SDS011;32822;48.140;7.702;2024-03-25T07:24:10;3.60;;;2.37;;
47069;SDS011;32822;48.140;7.702;2024-03-25T07:26:36;2.93;;;2.60;;
47069;SDS011;32822;48.140;7.702;2024-03-25T07:29:01;5.53;;;2.63;;
47069;SDS011;32822;48.140;7.702;2024-03-25T07:31:29;2.20;;;2.03;;
47069;SDS011;32822;48.140;7.702;2024-03-25T07:33:55;3.57;;;2.53;;
47069;SDS011;32822;48.140;7.702;2024-03-25T07:36:20;4.13;;;2.57;;
47069;SDS011;32822;48.140;7.702;2024-03-25T07:38:46;3.70;;;2.60;;
47069;SDS011;32822;48.140;7.702;2024-03-25T07:41:12;5.03;;;2.50;;
47069;SDS011;32822;48.140;7.702;2024-03-25T07:43:38;4.13;;;2.37;;
47069;SDS011;32822;48.140;7.702;2024-03-25T07:46:03;4.13;;;2.80;;
47069;SDS011;32822;48.140;7.702;2024-03-25T07:48:31;3.23;;;2.40;;
47069;SDS011;32822;48.140;7.702;2024-03-25T07:50:56;2.53;;;2.33;;
47069;SDS011;32822;48.140;7.702;2024-03-25T07:53:22;4.30;;;2.20;;
47069;SDS011;32822;48.140;7.702;2024-03-25T07:55:48;5.10;;;3.20;;
47069;SDS011;32822;48.140;7.702;2024-03-25T07:58:14;5.47;;;2.80;;
47069;SDS011;32822;48.140;7.702;2024-03-25T08:00:39;6.53;;;2.40;;
47069;SDS011;32822;48.140;7.702;2024-03-25T08:03:05;3.13;;;2.50;;
47069;SDS011;32822;48.140;7.702;2024-03-25T08:05:32;2.80;;;2.50;;
47069;SDS011;32822;48.140;7.702;2024-03-25T08:07:58;4.53;;;2.43;;
47069;SDS011;32822;48.140;7.702;2024-03-25T08:10:24;4.23;;;2.40;;
47069;SDS011;32822;48.140;7.702;2024-03-25T08:12:50;5.33;;;2.33;;
47069;SDS011;32822;48.140;7.702;2024-03-25T08:15:16;8.27;;;3.13;;
47069;SDS011;32822;48.140;7.702;2024-03-25T08:17:42;3.43;;;2.37;;
47069;SDS011;32822;48.140;7.702;2024-03-25T08:20:08;4.13;;;2.00;;
47069;SDS011;32822;48.140;7.702;2024-03-25T08:22:35;5.97;;;2.47;;
47069;SDS011;32822;48.140;7.702;2024-03-25T08:25:01;5.90;;;2.67;;
47069;SDS011;32822;48.140;7.702;2024-03-25T08:27:27;2.70;;;2.23;;
47069;SDS011;32822;48.140;7.702;2024-03-25T08:29:53;3.00;;;2.00;;
47069;SDS011;32822;48.140;7.702;2024-03-25T08:32:18;3.90;;;2.30;;
47069;SDS011;32822;48.140;7.702;2024-03-25T08:34:44;3.03;;;2.37;;
47069;SDS011;32822;48.140;7.702;2024-03-25T08:37:10;3.47;;;2.13;;
47069;SDS011;32822;48.140;7.702;2024-03-25T08:39:37;6.10;;;2.50;;
47069;SDS011;32822;48.140;7.702;2024-03-25T08:42:03;6.70;;;2.67;;
47069;SDS011;32822;48.140;7.702;2024-03-25T08:44:29;5.20;;;2.43;;
47069;SDS011;32822;48.140;7.702;2024-03-25T08:46:55;2.83;;;2.50;;
47069;SDS011;32822;48.140;7.702;2024-03-25T08:49:21;3.33;;;2.70;;
47069;SDS011;32822;48.140;7.702;2024-03-25T08:51:47;5.87;;;2.53;;
47069;SDS011;32822;48.140;7.702;2024-03-25T08:54:12;2.53;;;2.33;;
47069;SDS011;32822;48.140;7.702;2024-03-25T08:56:40;5.00;;;2.33;;
47069;SDS011;32822;48.140;7.702;2024-03-25T08:59:05;4.23;;;2.50;;
47069;SDS011;32822;48.140;7.702;2024-03-25T09:01:31;4.77;;;2.77;;
47069;SDS011;32822;48.140;7.702;2024-03-25T09:03:57;5.80;;;2.67;;
47069;SDS011;32822;48.140;7.702;2024-03-25T09:06:23;4.10;;;2.73;;
47069;SDS011;32822;48.140;7.702;2024-03-25T09:08:49;6.13;;;2.30;;
47069;SDS011;32822;48.140;7.702;2024-03-25T09:11:29;4.43;;;2.27;;
47069;SDS011;32822;48.140;7.702;2024-03-25T09:13:56;5.00;;;2.67;;
47069;SDS011;32822;48.140;7.702;2024-03-25T09:16:22;2.37;;;2.17;;
47069;SDS011;32822;48.140;7.702;2024-03-25T09:18:48;3.17;;;1.73;;
47069;SDS011;32822;48.140;7.702;2024-03-25T09:21:13;8.57;;;2.83;;
47069;SDS011;32822;48.140;7.702;2024-03-25T09:23:39;3.17;;;2.17;;
47069;SDS011;32822;48.140;7.702;2024-03-25T09:26:05;6.20;;;2.37;;
47069;SDS011;32822;48.140;7.702;2024-03-25T09:28:31;3.33;;;2.03;;
47069;SDS011;32822;48.140;7.702;2024-03-25T09:30:58;3.30;;;1.80;;
47069;SDS011;32822;48.140;7.702;2024-03-25T09:33:24;5.53;;;2.00;;
47069;SDS011;32822;48.140;7.702;2024-03-25T09:35:50;2.73;;;2.53;;
47069;SDS011;32822;48.140;7.702;2024-03-25T09:38:15;6.77;;;2.23;;
47069;SDS011;32822;48.140;7.702;2024-03-25T09:40:41;4.03;;;2.17;;
47069;SDS011;32822;48.140;7.702;2024-03-25T09:43:09;2.43;;;1.80;;
47069;SDS011;32822;48.140;7.702;2024-03-25T09:45:41;3.73;;;1.70;;
47069;SDS011;32822;48.140;7.702;2024-03-25T09:48:10;4.20;;;2.00;;
47069;SDS011;32822;48.140;7.702;2024-03-25T09:50:37;3.13;;;1.70;;
47069;SDS011;32822;48.140;7.702;2024-03-25T09:53:04;6.33;;;1.90;;
47069;SDS011;32822;48.140;7.702;2024-03-25T09:55:30;3.13;;;2.10;;
47069;SDS011;32822;48.140;7.702;2024-03-25T09:57:57;2.50;;;1.90;;
47069;SDS011;32822;48.140;7.702;2024-03-25T10:00:24;3.67;;;2.20;;
47069;SDS011;32822;48.140;7.702;2024-03-25T10:02:51;4.10;;;1.80;;
47069;SDS011;32822;48.140;7.702;2024-03-25T10:05:18;4.17;;;1.80;;
47069;SDS011;32822;48.140;7.702;2024-03-25T10:07:44;6.40;;;2.30;;
47069;SDS011;32822;48.140;7.702;2024-03-25T10:10:10;6.07;;;2.37;;
47069;SDS011;32822;48.140;7.702;2024-03-25T10:12:36;3.23;;;1.90;;
47069;SDS011;32822;48.140;7.702;2024-03-25T10:15:02;5.77;;;2.40;;
47069;SDS011;32822;48.140;7.702;2024-03-25T10:17:30;4.63;;;2.13;;
47069;SDS011;32822;48.140;7.702;2024-03-25T10:19:55;4.50;;;2.37;;
47069;SDS011;32822;48.140;7.702;2024-03-25T10:22:22;3.40;;;1.80;;
47069;SDS011;32822;48.140;7.702;2024-03-25T10:24:48;3.43;;;2.00;;
47069;SDS011;32822;48.140;7.702;2024-03-25T10:27:17;6.40;;;2.53;;
47069;SDS011;32822;48.140;7.702;2024-03-25T10:29:44;3.13;;;2.27;;
47069;SDS011;32822;48.140;7.702;2024-03-25T10:32:09;2.20;;;1.90;;
47069;SDS011;32822;48.140;7.702;2024-03-25T10:34:35;3.53;;;2.00;;
47069;SDS011;32822;48.140;7.702;2024-03-25T10:37:01;2.67;;;2.00;;
47069;SDS011;32822;48.140;7.702;2024-03-25T10:39:31;5.17;;;2.00;;
47069;SDS011;32822;48.140;7.702;2024-03-25T10:41:58;4.87;;;1.90;;
47069;SDS011;32822;48.140;7.702;2024-03-25T10:44:25;2.67;;;2.17;;
47069;SDS011;32822;48.140;7.702;2024-03-25T10:46:55;5.83;;;2.10;;
47069;SDS011;32822;48.140;7.702;2024-03-25T10:49:30;3.87;;;2.20;;
47069;SDS011;32822;48.140;7.702;2024-03-25T10:51:59;4.23;;;1.97;;
47069;SDS011;32822;48.140;7.702;2024-03-25T10:54:28;2.37;;;1.90;;
47069;SDS011;32822;48.140;7.702;2024-03-25T10:56:58;3.83;;;1.90;;
47069;SDS011;32822;48.140;7.702;2024-03-25T10:59:26;4.47;;;2.40;;
47069;SDS011;32822;48.140;7.702;2024-03-25T11:01:52;2.83;;;2.10;;
47069;SDS011;32822;48.140;7.702;2024-03-25T11:04:18;4.37;;;1.90;;
47069;SDS011;32822;48.140;7.702;2024-03-25T11:06:44;2.57;;;1.90;;
47069;SDS011;32822;48.140;7.702;2024-03-25T11:09:10;1.97;;;1.73;;
47069;SDS011;32822;48.140;7.702;2024-03-25T11:11:47;3.73;;;2.10;;
47069;SDS011;32822;48.140;7.702;2024-03-25T11:14:16;4.40;;;1.70;;
47069;SDS011;32822;48.140;7.702;2024-03-25T11:16:42;5.67;;;2.00;;
47069;SDS011;32822;48.140;7.702;2024-03-25T11:19:10;3.37;;;2.00;;
47069;SDS011;32822;48.140;7.702;2024-03-25T11:21:36;2.47;;;1.87;;
47069;SDS011;32822;48.140;7.702;2024-03-25T11:24:06;5.03;;;2.50;;
47069;SDS011;32822;48.140;7.702;2024-03-25T11:26:33;4.53;;;2.10;;
47069;SDS011;32822;48.140;7.702;2024-03-25T11:28:59;3.33;;;1.77;;
47069;SDS011;32822;48.140;7.702;2024-03-25T11:31:26;3.10;;;1.67;;
47069;SDS011;32822;48.140;7.702;2024-03-25T11:33:52;3.97;;;1.83;;
47069;SDS011;32822;48.140;7.702;2024-03-25T11:36:18;3.43;;;1.83;;
47069;SDS011;32822;48.140;7.702;2024-03-25T11:38:44;2.63;;;1.87;;
47069;SDS011;32822;48.140;7.702;2024-03-25T11:41:10;2.80;;;1.63;;
47069;SDS011;32822;48.140;7.702;2024-03-25T11:43:36;5.80;;;2.70;;
47069;SDS011;32822;48.140;7.702;2024-03-25T11:46:02;3.67;;;2.10;;
47069;SDS011;32822;48.140;7.702;2024-03-25T11:48:30;2.33;;;1.40;;
47069;SDS011;32822;48.140;7.702;2024-03-25T11:50:56;3.37;;;1.67;;
47069;SDS011;32822;48.140;7.702;2024-03-25T11:53:21;3.47;;;1.83;;
47069;SDS011;32822;48.140;7.702;2024-03-25T11:55:47;1.63;;;1.10;;
47069;SDS011;32822;48.140;7.702;2024-03-25T11:58:13;4.00;;;1.50;;
47069;SDS011;32822;48.140;7.702;2024-03-25T12:00:43;2.80;;;1.67;;
47069;SDS011;32822;48.140;7.702;2024-03-25T12:03:09;1.40;;;1.30;;
47069;SDS011;32822;48.140;7.702;2024-03-25T12:05:36;2.30;;;1.43;;
47069;SDS011;32822;48.140;7.702;2024-03-25T12:08:04;2.97;;;1.60;;
47069;SDS011;32822;48.140;7.702;2024-03-25T12:10:32;1.30;;;1.20;;
47069;SDS011;32822;48.140;7.702;2024-03-25T12:13:16;1.70;;;1.30;;
47069;SDS011;32822;48.140;7.702;2024-03-25T12:15:42;1.90;;;1.80;;
47069;SDS011;32822;48.140;7.702;2024-03-25T12:18:08;1.70;;;1.40;;
47069;SDS011;32822;48.140;7.702;2024-03-25T12:20:34;1.93;;;1.50;;
47069;SDS011;32822;48.140;7.702;2024-03-25T12:23:01;2.80;;;1.60;;
47069;SDS011;32822;48.140;7.702;2024-03-25T12:25:27;7.50;;;2.07;;
47069;SDS011;32822;48.140;7.702;2024-03-25T12:27:53;2.37;;;1.43;;
47069;SDS011;32822;48.140;7.702;2024-03-25T12:30:19;4.30;;;1.80;;
47069;SDS011;32822;48.140;7.702;2024-03-25T12:32:45;2.47;;;1.77;;
47069;SDS011;32822;48.140;7.702;2024-03-25T12:35:11;2.93;;;1.43;;
47069;SDS011;32822;48.140;7.702;2024-03-25T12:37:40;3.47;;;1.57;;
47069;SDS011;32822;48.140;7.702;2024-03-25T12:40:07;2.30;;;1.57;;
47069;SDS011;32822;48.140;7.702;2024-03-25T12:42:35;2.57;;;1.77;;
47069;SDS011;32822;48.140;7.702;2024-03-25T12:45:01;2.40;;;1.83;;
47069;SDS011;32822;48.140;7.702;2024-03-25T12:47:27;4.23;;;1.60;;
47069;SDS011;32822;48.140;7.702;2024-03-25T12:49:53;1.70;;;1.50;;
47069;SDS011;32822;48.140;7.702;2024-03-25T12:52:19;3.33;;;1.87;;
47069;SDS011;32822;48.140;7.702;2024-03-25T12:54:46;1.50;;;1.37;;
47069;SDS011;32822;48.140;7.702;2024-03-25T12:57:12;2.37;;;1.90;;
47069;SDS011;32822;48.140;7.702;2024-03-25T12:59:38;3.97;;;1.67;;
47069;SDS011;32822;48.140;7.702;2024-03-25T13:02:04;2.37;;;1.50;;
47069;SDS011;32822;48.140;7.702;2024-03-25T13:04:30;5.87;;;1.90;;
47069;SDS011;32822;48.140;7.702;2024-03-25T13:06:55;2.63;;;1.87;;
47069;SDS011;32822;48.140;7.702;2024-03-25T13:09:21;3.67;;;2.00;;
47069;SDS011;32822;48.140;7.702;2024-03-25T13:11:48;2.67;;;1.60;;
47069;SDS011;32822;48.140;7.702;2024-03-25T13:14:14;4.00;;;2.00;;
47069;SDS011;32822;48.140;7.702;2024-03-25T13:16:40;3.30;;;1.83;;
47069;SDS011;32822;48.140;7.702;2024-03-25T13:19:06;3.50;;;1.43;;
47069;SDS011;32822;48.140;7.702;2024-03-25T13:21:32;2.20;;;1.60;;
47069;SDS011;32822;48.140;7.702;2024-03-25T13:23:58;2.07;;;1.50;;
47069;SDS011;32822;48.140;7.702;2024-03-25T13:26:23;2.00;;;1.60;;
47069;SDS011;32822;48.140;7.702;2024-03-25T13:28:51;2.53;;;1.50;;
47069;SDS011;32822;48.140;7.702;2024-03-25T13:31:17;1.93;;;1.53;;
47069;SDS011;32822;48.140;7.702;2024-03-25T13:33:42;2.57;;;1.77;;
47069;SDS011;32822;48.140;7.702;2024-03-25T13:36:08;2.07;;;1.97;;
47069;SDS011;32822;48.140;7.702;2024-03-25T13:38:34;1.93;;;1.70;;
47069;SDS011;32822;48.140;7.702;2024-03-25T13:41:01;1.70;;;1.33;;
47069;SDS011;32822;48.140;7.702;2024-03-25T13:43:28;3.37;;;1.63;;
47069;SDS011;32822;48.140;7.702;2024-03-25T13:45:55;2.27;;;1.80;;
47069;SDS011;32822;48.140;7.702;2024-03-25T13:48:21;2.30;;;1.60;;
47069;SDS011;32822;48.140;7.702;2024-03-25T13:50:47;2.53;;;1.60;;
47069;SDS011;32822;48.140;7.702;2024-03-25T13:53:13;2.00;;;1.50;;
47069;SDS011;32822;48.140;7.702;2024-03-25T13:55:39;2.37;;;1.90;;
47069;SDS011;32822;48.140;7.702;2024-03-25T13:58:05;2.43;;;1.53;;
47069;SDS011;32822;48.140;7.702;2024-03-25T14:00:32;2.50;;;1.57;;
47069;SDS011;32822;48.140;7.702;2024-03-25T14:02:59;2.80;;;1.40;;
47069;SDS011;32822;48.140;7.702;2024-03-25T14:05:25;3.33;;;1.73;;
47069;SDS011;32822;48.140;7.702;2024-03-25T14:07:51;3.10;;;1.87;;
47069;SDS011;32822;48.140;7.702;2024-03-25T14:10:17;1.50;;;1.23;;
47069;SDS011;32822;48.140;7.702;2024-03-25T14:12:43;3.07;;;1.90;;
47069;SDS011;32822;48.140;7.702;2024-03-25T14:15:09;2.70;;;1.77;;
47069;SDS011;32822;48.140;7.702;2024-03-25T14:17:35;1.77;;;1.63;;
47069;SDS011;32822;48.140;7.702;2024-03-25T14:20:03;2.33;;;1.63;;
47069;SDS011;32822;48.140;7.702;2024-03-25T14:22:29;1.93;;;1.73;;
47069;SDS011;32822;48.140;7.702;2024-03-25T14:24:55;1.63;;;1.50;;
47069;SDS011;32822;48.140;7.702;2024-03-25T14:27:21;2.33;;;2.10;;
47069;SDS011;32822;48.140;7.702;2024-03-25T14:29:47;2.17;;;1.70;;
47069;SDS011;32822;48.140;7.702;2024-03-25T14:32:13;3.37;;;1.57;;
47069;SDS011;32822;48.140;7.702;2024-03-25T14:34:39;2.70;;;1.50;;
47069;SDS011;32822;48.140;7.702;2024-03-25T14:37:06;2.33;;;1.73;;
47069;SDS011;32822;48.140;7.702;2024-03-25T14:39:32;1.70;;;1.60;;
47069;SDS011;32822;48.140;7.702;2024-03-25T14:41:57;2.07;;;1.53;;
47069;SDS011;32822;48.140;7.702;2024-03-25T14:44:23;4.30;;;2.47;;